US-0252 weather

Point Barrow LRRS Airstrip
Point Barrow, Alaska, United States

Public forecast

Using degrees Fahrenheit for public forecast. Weather courtesy of forecast.io.

METAR (pilot weather report)

Closest report is Wiley Post Will Rogers Memorial Airport, 3.9 nm (7.3 km) SW. Retrieved 2019/04/25 21:53 UTC (16 minutes ago):

PABR 252153Z 10011KT 6SM BR OVC010 M11/M13 A3035

TAF (pilot weather forecast)

Closest forecast is Wiley Post Will Rogers Memorial Airport, 3.9 nm (7.3 km) SW. Retrieved 2019/04/25 18:30 UTC (4 hours ago):

TAF PABR 251728Z 2518/2618 08015KT 6SM BR OVC010 FM252100 13006KT P6SM VCSH OVC017 FM261200 14003KT P6SM BKN015 FM261400 15004KT P6SM BKN060